Time;durP1;ratioP1;P1;durP2;ratioP2;P2;SDS_P1;SDS_P2;PMS_P1;PMS_P2;Temp;Humidity;BMP_temperature;BMP_pressure;BME280_temperature;BME280_humidity;BME280_pressure;Samples;Min_cycle;Max_cycle;Signal;HPM_P1;HPM_P2
2023/05/16 00:00:24;;;;;;;22.55;4.28;;;;;;;;;;6163142;23;20448;-86
2023/05/16 00:02:50;;;;;;;23.55;4.50;;;;;;;;;;6161793;23;20017;-87
2023/05/16 00:05:16;;;;;;;19.65;4.63;;;;;;;;;;6164005;23;20048;-87
2023/05/16 00:07:43;;;;;;;19.02;4.15;;;;;;;;;;6138037;23;20074;-87
2023/05/16 00:10:09;;;;;;;19.73;4.10;;;;;;;;;;6138964;23;20017;-87
2023/05/16 00:12:38;;;;;;;27.00;4.53;;;;;;;;;;6137754;23;20309;-87
2023/05/16 00:15:05;;;;;;;19.17;3.97;;;;;;;;;;6138749;23;20017;-87
2023/05/16 00:17:31;;;;;;;20.95;4.10;;;;;;;;;;6162964;23;20518;-86
2023/05/16 00:19:59;;;;;;;17.10;3.72;;;;;;;;;;6138058;23;20013;-86
2023/05/16 00:22:25;;;;;;;19.92;4.57;;;;;;;;;;6137163;23;20032;-87
2023/05/16 00:24:51;;;;;;;15.23;4.05;;;;;;;;;;6163947;23;20456;-86
2023/05/16 00:27:17;;;;;;;18.73;3.83;;;;;;;;;;6188864;23;20013;-86
2023/05/16 00:29:43;;;;;;;14.95;3.50;;;;;;;;;;6190275;23;20072;-87
2023/05/16 00:32:09;;;;;;;19.40;4.18;;;;;;;;;;6190243;23;20017;-86
2023/05/16 00:34:35;;;;;;;22.90;3.67;;;;;;;;;;6163022;23;20036;-87
2023/05/16 00:37:01;;;;;;;17.35;3.60;;;;;;;;;;6137608;23;20093;-87
2023/05/16 00:39:27;;;;;;;20.02;3.72;;;;;;;;;;6162989;23;20090;-87
2023/05/16 00:41:53;;;;;;;22.92;4.03;;;;;;;;;;6163106;23;20065;-86
2023/05/16 00:44:19;;;;;;;19.65;4.13;;;;;;;;;;6163949;23;20021;-86
2023/05/16 00:46:45;;;;;;;16.40;3.55;;;;;;;;;;6137633;23;20009;-87
2023/05/16 00:49:11;;;;;;;19.80;3.63;;;;;;;;;;6139405;23;20075;-87
2023/05/16 00:51:38;;;;;;;14.43;3.67;;;;;;;;;;6190457;23;20048;-88
2023/05/16 00:54:05;;;;;;;18.13;3.53;;;;;;;;;;6139296;23;20389;-87
2023/05/16 00:56:31;;;;;;;19.70;3.55;;;;;;;;;;6162754;23;20016;-86
2023/05/16 00:58:57;;;;;;;21.70;4.32;;;;;;;;;;6137398;23;20085;-87
2023/05/16 01:01:24;;;;;;;23.52;4.05;;;;;;;;;;6138544;23;20108;-87
2023/05/16 01:03:50;;;;;;;15.95;3.40;;;;;;;;;;6189682;23;20009;-87
2023/05/16 01:06:16;;;;;;;18.73;3.35;;;;;;;;;;6163197;23;20044;-87
2023/05/16 01:08:42;;;;;;;26.00;4.70;;;;;;;;;;6162135;23;20009;-86
2023/05/16 01:11:28;;;;;;;11.90;3.55;;;;;;;;;;6163037;23;20063;-87
2023/05/16 01:14:00;;;;;;;17.45;3.53;;;;;;;;;;6127098;23;20063;-87
2023/05/16 01:16:55;;;;;;;19.55;3.97;;;;;;;;;;6162043;23;20044;-86
2023/05/16 01:19:28;;;;;;;17.42;3.78;;;;;;;;;;6174875;23;20036;-88
2023/05/16 01:22:14;;;;;;;17.80;3.92;;;;;;;;;;6161862;23;20019;-87
2023/05/16 01:24:50;;;;;;;15.77;3.20;;;;;;;;;;6189238;23;20068;-88
2023/05/16 01:27:17;;;;;;;19.02;3.83;;;;;;;;;;6189184;23;20009;-86
2023/05/16 01:29:43;;;;;;;14.50;3.28;;;;;;;;;;6164068;23;20013;-87
2023/05/16 01:32:09;;;;;;;17.48;3.63;;;;;;;;;;6163189;23;20080;-87
2023/05/16 01:34:35;;;;;;;19.98;3.70;;;;;;;;;;6189361;23;20013;-87
2023/05/16 01:37:04;;;;;;;15.50;3.78;;;;;;;;;;6162600;23;20096;-87
2023/05/16 01:39:37;;;;;;;21.67;4.03;;;;;;;;;;6162799;23;20024;-86
2023/05/16 01:42:13;;;;;;;20.33;3.03;;;;;;;;;;6138319;23;20028;-87
2023/05/16 01:44:51;;;;;;;22.75;3.78;;;;;;;;;;6163594;23;20016;-86
2023/05/16 01:47:18;;;;;;;17.25;2.70;;;;;;;;;;6189087;23;20039;-86
2023/05/16 01:49:57;;;;;;;15.15;3.60;;;;;;;;;;6162652;23;20013;-87
2023/05/16 01:52:42;;;;;;;15.43;4.03;;;;;;;;;;6137433;23;20052;-86
2023/05/16 01:55:13;;;;;;;19.58;3.65;;;;;;;;;;6188660;23;20020;-87
2023/05/16 01:57:39;;;;;;;16.33;3.63;;;;;;;;;;6162893;23;20116;-87
2023/05/16 02:00:06;;;;;;;14.75;3.22;;;;;;;;;;6162207;23;20095;-85
2023/05/16 02:02:32;;;;;;;15.88;3.42;;;;;;;;;;6138172;23;20013;-86
2023/05/16 02:04:58;;;;;;;14.88;3.17;;;;;;;;;;6136710;23;20071;-87
2023/05/16 02:07:24;;;;;;;10.75;2.70;;;;;;;;;;6161589;23;20468;-86
2023/05/16 02:09:50;;;;;;;19.08;3.65;;;;;;;;;;6188365;23;20013;-86
2023/05/16 02:12:16;;;;;;;20.40;3.20;;;;;;;;;;6162900;23;20017;-87
2023/05/16 02:14:42;;;;;;;15.93;2.90;;;;;;;;;;6161971;23;20021;-86
2023/05/16 02:17:08;;;;;;;13.57;2.90;;;;;;;;;;6162251;23;20031;-87
2023/05/16 02:19:35;;;;;;;19.50;3.50;;;;;;;;;;6161401;23;20515;-87
2023/05/16 02:22:01;;;;;;;18.42;3.22;;;;;;;;;;6136533;23;20108;-87
2023/05/16 02:24:27;;;;;;;12.77;3.47;;;;;;;;;;6161381;23;20040;-87
2023/05/16 02:26:53;;;;;;;15.50;2.95;;;;;;;;;;6189040;23;20013;-87
2023/05/16 02:29:19;;;;;;;17.23;3.58;;;;;;;;;;6161634;23;20388;-87
2023/05/16 02:31:45;;;;;;;14.77;2.95;;;;;;;;;;6188211;23;20017;-87
2023/05/16 02:34:11;;;;;;;16.23;3.28;;;;;;;;;;6137334;23;20012;-87
2023/05/16 02:36:37;;;;;;;24.20;4.18;;;;;;;;;;6188830;23;20463;-86
2023/05/16 02:39:03;;;;;;;17.02;3.75;;;;;;;;;;6162067;23;20013;-87
2023/05/16 02:41:30;;;;;;;17.73;3.33;;;;;;;;;;6163246;23;20068;-87
2023/05/16 02:43:56;;;;;;;21.08;4.35;;;;;;;;;;6161796;23;20048;-87
2023/05/16 02:46:23;;;;;;;19.85;3.58;;;;;;;;;;6137534;23;20017;-87
2023/05/16 02:48:50;;;;;;;16.13;3.22;;;;;;;;;;6137113;23;20017;-86
2023/05/16 02:51:16;;;;;;;17.30;3.75;;;;;;;;;;6162859;23;20028;-86
2023/05/16 02:53:42;;;;;;;20.00;3.53;;;;;;;;;;6188786;23;20048;-87
2023/05/16 02:56:09;;;;;;;17.52;3.55;;;;;;;;;;6188617;23;20013;-87
2023/05/16 02:58:35;;;;;;;13.95;3.20;;;;;;;;;;6137311;23;20017;-87
2023/05/16 03:01:01;;;;;;;15.25;3.15;;;;;;;;;;6187181;23;20024;-86
2023/05/16 03:03:27;;;;;;;14.43;3.05;;;;;;;;;;6188457;23;20340;-87
2023/05/16 03:05:53;;;;;;;17.60;3.13;;;;;;;;;;6162259;23;20458;-86
2023/05/16 03:08:19;;;;;;;17.50;3.75;;;;;;;;;;6189161;23;20051;-86
2023/05/16 03:10:45;;;;;;;14.20;2.92;;;;;;;;;;6137927;23;20009;-87
2023/05/16 03:13:11;;;;;;;14.40;2.90;;;;;;;;;;6188415;23;20313;-87
2023/05/16 03:15:37;;;;;;;16.42;3.33;;;;;;;;;;6187412;23;20036;-86
2023/05/16 03:18:03;;;;;;;15.00;2.83;;;;;;;;;;6161900;23;20383;-86
2023/05/16 03:20:29;;;;;;;16.75;4.03;;;;;;;;;;6189887;23;20017;-87
2023/05/16 03:22:55;;;;;;;19.10;3.63;;;;;;;;;;6162826;23;20013;-87
2023/05/16 03:25:21;;;;;;;17.42;3.30;;;;;;;;;;6163680;23;20048;-87
2023/05/16 03:27:47;;;;;;;15.98;3.80;;;;;;;;;;6162495;23;20393;-87
2023/05/16 03:30:13;;;;;;;15.70;3.55;;;;;;;;;;6162260;23;20009;-88
2023/05/16 03:32:39;;;;;;;19.00;3.67;;;;;;;;;;6164474;23;20017;-86
2023/05/16 03:35:05;;;;;;;15.70;3.63;;;;;;;;;;6190767;23;20125;-85
2023/05/16 03:37:31;;;;;;;13.27;3.17;;;;;;;;;;6189846;23;20366;-87
2023/05/16 03:39:57;;;;;;;21.27;3.50;;;;;;;;;;6139327;23;20017;-87
2023/05/16 03:42:23;;;;;;;20.40;3.55;;;;;;;;;;6162792;23;20470;-85
2023/05/16 03:44:49;;;;;;;13.30;3.50;;;;;;;;;;6189813;23;20020;-87
2023/05/16 03:47:15;;;;;;;20.77;3.90;;;;;;;;;;6164482;23;20395;-87
2023/05/16 03:49:41;;;;;;;17.50;3.70;;;;;;;;;;6163249;23;20023;-86
2023/05/16 03:52:07;;;;;;;14.73;3.40;;;;;;;;;;6163725;23;20045;-87
2023/05/16 03:54:33;;;;;;;18.08;4.38;;;;;;;;;;6189797;23;20009;-88
2023/05/16 03:57:00;;;;;;;17.83;3.90;;;;;;;;;;6139397;23;20035;-90
2023/05/16 03:59:26;;;;;;;17.58;4.03;;;;;;;;;;6136785;23;20009;-86
2023/05/16 04:01:52;;;;;;;16.25;4.00;;;;;;;;;;6137887;23;20114;-86
2023/05/16 04:04:18;;;;;;;20.63;4.57;;;;;;;;;;6138336;23;20436;-86
2023/05/16 04:06:44;;;;;;;19.20;4.13;;;;;;;;;;6166513;23;20064;-89
2023/05/16 04:09:10;;;;;;;18.88;4.22;;;;;;;;;;6164648;23;20017;-89
2023/05/16 04:11:37;;;;;;;19.42;4.00;;;;;;;;;;6191046;23;20013;-90
2023/05/16 04:14:03;;;;;;;14.75;3.38;;;;;;;;;;6139764;23;20009;-89
2023/05/16 04:16:29;;;;;;;16.48;4.03;;;;;;;;;;6166157;23;20021;-87
2023/05/16 04:18:55;;;;;;;18.17;4.32;;;;;;;;;;6141896;23;20013;-91
2023/05/16 04:21:21;;;;;;;14.32;3.55;;;;;;;;;;6141267;23;20444;-90
2023/05/16 04:23:47;;;;;;;15.93;4.35;;;;;;;;;;6140085;23;20027;-89
2023/05/16 04:26:13;;;;;;;17.25;3.72;;;;;;;;;;6140662;23;20041;-88
2023/05/16 04:28:40;;;;;;;15.50;3.95;;;;;;;;;;6162595;23;20013;-89
2023/05/16 04:31:07;;;;;;;17.80;3.65;;;;;;;;;;6166444;23;20048;-90
2023/05/16 04:33:33;;;;;;;21.83;4.53;;;;;;;;;;6165885;23;20048;-90
2023/05/16 04:35:59;;;;;;;20.63;3.75;;;;;;;;;;6141453;23;20013;-90
2023/05/16 04:38:25;;;;;;;12.82;3.88;;;;;;;;;;6141078;23;20013;-90
2023/05/16 04:40:51;;;;;;;20.63;4.00;;;;;;;;;;6141098;23;20021;-89
2023/05/16 04:43:18;;;;;;;20.88;3.97;;;;;;;;;;6141583;23;20082;-90
2023/05/16 04:45:44;;;;;;;17.50;4.20;;;;;;;;;;6164584;23;20017;-89
2023/05/16 04:48:11;;;;;;;15.95;3.97;;;;;;;;;;6141585;23;20096;-88
2023/05/16 04:50:37;;;;;;;19.13;4.38;;;;;;;;;;6192676;23;20013;-89
2023/05/16 04:53:03;;;;;;;13.70;3.35;;;;;;;;;;6141376;23;20100;-90
2023/05/16 04:55:29;;;;;;;16.10;3.50;;;;;;;;;;6166269;23;20009;-91
2023/05/16 04:57:55;;;;;;;20.73;4.15;;;;;;;;;;6141105;23;20073;-91
2023/05/16 05:00:21;;;;;;;15.73;3.90;;;;;;;;;;6162105;23;20083;-84
2023/05/16 05:02:47;;;;;;;18.52;4.40;;;;;;;;;;6184590;23;20017;-85
2023/05/16 05:05:13;;;;;;;15.75;3.72;;;;;;;;;;6162710;23;20068;-90
2023/05/16 05:07:39;;;;;;;17.30;3.88;;;;;;;;;;6141347;23;20020;-89
2023/05/16 05:10:06;;;;;;;16.23;3.50;;;;;;;;;;6165189;23;20101;-91
2023/05/16 05:12:32;;;;;;;16.85;3.78;;;;;;;;;;6192348;23;20013;-91
2023/05/16 05:14:58;;;;;;;13.45;3.20;;;;;;;;;;6166541;23;20024;-90
2023/05/16 05:17:24;;;;;;;11.52;4.03;;;;;;;;;;6139907;23;20021;-91
2023/05/16 05:19:50;;;;;;;14.30;4.22;;;;;;;;;;6135548;23;20149;-89
2023/05/16 05:22:17;;;;;;;18.92;3.45;;;;;;;;;;6158570;23;20037;-91
2023/05/16 05:24:43;;;;;;;16.05;3.28;;;;;;;;;;6157936;23;20009;-91
2023/05/16 05:27:09;;;;;;;13.73;3.40;;;;;;;;;;6157724;23;20166;-91
2023/05/16 05:29:35;;;;;;;18.00;3.60;;;;;;;;;;6133898;23;20009;-91
2023/05/16 05:32:01;;;;;;;11.40;2.60;;;;;;;;;;6157984;23;20013;-91
2023/05/16 05:34:27;;;;;;;13.57;2.55;;;;;;;;;;6158343;23;20051;-91
2023/05/16 05:36:53;;;;;;;14.13;3.10;;;;;;;;;;6185299;23;20044;-92
2023/05/16 05:39:19;;;;;;;13.13;3.25;;;;;;;;;;6133728;23;20456;-92
2023/05/16 05:41:45;;;;;;;10.00;2.50;;;;;;;;;;6185155;23;20013;-92
2023/05/16 05:44:11;;;;;;;12.88;2.60;;;;;;;;;;6133955;23;20035;-91
2023/05/16 05:46:37;;;;;;;9.88;2.58;;;;;;;;;;6134289;23;20013;-92
2023/05/16 05:49:03;;;;;;;11.65;2.25;;;;;;;;;;6159401;23;20112;-92
2023/05/16 05:51:29;;;;;;;10.02;2.50;;;;;;;;;;6184936;23;20020;-92
2023/05/16 05:53:55;;;;;;;12.48;2.65;;;;;;;;;;6133640;23;20013;-91
2023/05/16 05:56:23;;;;;;;11.10;2.60;;;;;;;;;;6133572;23;20021;-92
2023/05/16 05:58:49;;;;;;;9.80;2.42;;;;;;;;;;6185123;23;20021;-92
2023/05/16 06:01:15;;;;;;;15.93;2.20;;;;;;;;;;6133952;23;20055;-92
2023/05/16 06:03:41;;;;;;;14.02;2.70;;;;;;;;;;6184513;23;20017;-90
2023/05/16 06:06:08;;;;;;;11.73;2.22;;;;;;;;;;6134136;23;20013;-90
2023/05/16 06:08:34;;;;;;;10.25;2.20;;;;;;;;;;6184661;23;20017;-90
2023/05/16 06:11:00;;;;;;;11.23;2.58;;;;;;;;;;6133424;23;20076;-91
2023/05/16 06:13:26;;;;;;;10.95;2.45;;;;;;;;;;6133837;23;20067;-91
2023/05/16 06:15:53;;;;;;;11.50;2.63;;;;;;;;;;6158057;23;20013;-91
2023/05/16 06:18:19;;;;;;;8.18;2.00;;;;;;;;;;6160483;23;20033;-90
2023/05/16 06:20:45;;;;;;;11.02;2.45;;;;;;;;;;6135064;23;20032;-90
2023/05/16 06:23:11;;;;;;;12.23;2.55;;;;;;;;;;6158569;23;20730;-91
2023/05/16 06:25:37;;;;;;;11.57;2.20;;;;;;;;;;6158199;23;20013;-90
2023/05/16 06:28:03;;;;;;;10.65;2.38;;;;;;;;;;6185017;23;20009;-90
2023/05/16 06:30:29;;;;;;;11.13;2.08;;;;;;;;;;6159016;23;20106;-90
2023/05/16 06:32:55;;;;;;;9.40;1.95;;;;;;;;;;6158863;23;20009;-90
2023/05/16 06:35:22;;;;;;;10.85;2.30;;;;;;;;;;6184636;23;20339;-88
2023/05/16 06:37:48;;;;;;;9.27;2.03;;;;;;;;;;6158293;23;20067;-90
2023/05/16 06:40:14;;;;;;;14.80;3.00;;;;;;;;;;6158402;23;20495;-89
2023/05/16 06:42:40;;;;;;;15.45;3.00;;;;;;;;;;6185045;23;20064;-93
2023/05/16 06:45:06;;;;;;;11.90;2.22;;;;;;;;;;6159002;23;20041;-90
2023/05/16 06:47:32;;;;;;;11.48;2.72;;;;;;;;;;6158589;23;20013;-90
2023/05/16 06:49:58;;;;;;;7.97;1.85;;;;;;;;;;6158054;23;20021;-90
2023/05/16 06:52:25;;;;;;;8.27;1.90;;;;;;;;;;6158397;23;20628;-91
2023/05/16 06:54:50;;;;;;;7.20;1.50;;;;;;;;;;6158275;23;20108;-90
2023/05/16 06:57:17;;;;;;;6.72;1.30;;;;;;;;;;6158742;23;20121;-90
2023/05/16 06:59:43;;;;;;;6.35;1.60;;;;;;;;;;6158109;23;20056;-90
2023/05/16 07:02:09;;;;;;;7.82;1.50;;;;;;;;;;6133629;23;20013;-90
2023/05/16 07:04:36;;;;;;;5.40;1.67;;;;;;;;;;6157674;23;20032;-91
2023/05/16 07:07:03;;;;;;;6.88;2.00;;;;;;;;;;6184081;23;20017;-91
2023/05/16 07:09:30;;;;;;;7.32;1.80;;;;;;;;;;6133629;23;20387;-91
2023/05/16 07:11:56;;;;;;;5.85;1.83;;;;;;;;;;6184762;23;20035;-91
2023/05/16 07:14:22;;;;;;;8.85;1.88;;;;;;;;;;6133653;23;20140;-91
2023/05/16 07:16:48;;;;;;;5.90;1.73;;;;;;;;;;6157888;23;20024;-90
2023/05/16 07:19:14;;;;;;;9.18;1.80;;;;;;;;;;6133156;23;20340;-91
2023/05/16 07:21:40;;;;;;;5.70;1.60;;;;;;;;;;6157356;23;20028;-91
2023/05/16 07:24:06;;;;;;;8.60;1.85;;;;;;;;;;6184627;23;20017;-91
2023/05/16 07:26:32;;;;;;;7.70;1.70;;;;;;;;;;6184714;23;20017;-92
2023/05/16 07:28:58;;;;;;;9.95;2.03;;;;;;;;;;6158849;23;20017;-91
2023/05/16 07:31:24;;;;;;;9.43;1.80;;;;;;;;;;6158329;23;20013;-91
2023/05/16 07:33:50;;;;;;;9.35;1.88;;;;;;;;;;6133850;23;20013;-91
2023/05/16 07:36:16;;;;;;;5.95;1.50;;;;;;;;;;6132845;23;20009;-91
2023/05/16 07:38:43;;;;;;;6.65;1.55;;;;;;;;;;6133315;23;20052;-91
2023/05/16 07:41:09;;;;;;;9.98;2.00;;;;;;;;;;6158337;23;20075;-91
2023/05/16 07:43:35;;;;;;;11.23;2.10;;;;;;;;;;6158626;23;20017;-90
2023/05/16 07:46:02;;;;;;;9.32;2.30;;;;;;;;;;6159616;23;20060;-92
2023/05/16 07:48:28;;;;;;;9.80;1.65;;;;;;;;;;6158452;23;20088;-90
2023/05/16 07:50:54;;;;;;;14.52;2.75;;;;;;;;;;6183828;23;20021;-90
2023/05/16 07:53:20;;;;;;;12.57;2.55;;;;;;;;;;6133008;23;20326;-91
2023/05/16 07:55:47;;;;;;;10.52;2.65;;;;;;;;;;6157667;23;20039;-90
2023/05/16 07:58:13;;;;;;;13.13;2.78;;;;;;;;;;6133662;23;20138;-90
2023/05/16 08:00:39;;;;;;;8.07;2.22;;;;;;;;;;6133410;23;20016;-91
2023/05/16 08:03:05;;;;;;;9.30;2.38;;;;;;;;;;6158346;23;20048;-90
2023/05/16 08:05:31;;;;;;;7.20;1.98;;;;;;;;;;6133402;23;20075;-90
2023/05/16 08:07:57;;;;;;;7.70;1.98;;;;;;;;;;6157504;23;20009;-90
2023/05/16 08:10:23;;;;;;;9.20;1.90;;;;;;;;;;6158141;23;20049;-89
2023/05/16 08:12:49;;;;;;;8.35;2.22;;;;;;;;;;6158188;23;20017;-91
2023/05/16 08:15:15;;;;;;;14.63;2.75;;;;;;;;;;6184375;23;20417;-89
2023/05/16 08:17:41;;;;;;;9.15;2.20;;;;;;;;;;6185492;23;20086;-91
2023/05/16 08:20:07;;;;;;;7.65;1.80;;;;;;;;;;6159434;23;20088;-92
2023/05/16 08:22:33;;;;;;;6.72;1.75;;;;;;;;;;6186226;23;20017;-91
2023/05/16 08:24:59;;;;;;;10.13;2.03;;;;;;;;;;6160425;23;20066;-92
2023/05/16 08:27:26;;;;;;;10.00;2.05;;;;;;;;;;6135007;23;20044;-91
2023/05/16 08:29:52;;;;;;;8.13;2.00;;;;;;;;;;6134956;23;20079;-91
2023/05/16 08:32:18;;;;;;;6.82;1.80;;;;;;;;;;6159424;23;20096;-89
2023/05/16 08:34:44;;;;;;;8.13;2.05;;;;;;;;;;6159506;23;20085;-90
2023/05/16 08:37:10;;;;;;;5.75;1.90;;;;;;;;;;6159999;23;20096;-89
2023/05/16 08:39:38;;;;;;;5.78;1.67;;;;;;;;;;6159943;23;20017;-91
2023/05/16 08:42:04;;;;;;;5.07;1.30;;;;;;;;;;6159391;23;20024;-89
2023/05/16 08:44:30;;;;;;;6.20;1.45;;;;;;;;;;6134351;23;20013;-91
2023/05/16 08:46:57;;;;;;;4.75;1.30;;;;;;;;;;6185986;23;20023;-90
2023/05/16 08:49:25;;;;;;;5.35;1.33;;;;;;;;;;6159333;23;20017;-90
2023/05/16 08:51:51;;;;;;;8.05;1.73;;;;;;;;;;6159848;23;20013;-91
2023/05/16 08:54:17;;;;;;;6.30;1.40;;;;;;;;;;6185751;23;20024;-89
2023/05/16 08:56:44;;;;;;;10.02;2.30;;;;;;;;;;6134868;23;20048;-90
2023/05/16 08:59:11;;;;;;;7.40;1.90;;;;;;;;;;6185974;23;20009;-90
2023/05/16 09:01:37;;;;;;;8.32;1.70;;;;;;;;;;6160421;23;20068;-91
2023/05/16 09:04:06;;;;;;;8.90;1.80;;;;;;;;;;6159125;23;20017;-90
2023/05/16 09:06:32;;;;;;;6.68;1.63;;;;;;;;;;6135090;23;20017;-90
2023/05/16 09:08:58;;;;;;;8.57;1.77;;;;;;;;;;6135218;23;20068;-88
2023/05/16 09:11:24;;;;;;;9.20;2.13;;;;;;;;;;6135850;23;20021;-89
2023/05/16 09:13:50;;;;;;;13.43;2.28;;;;;;;;;;6163402;23;20444;-89
2023/05/16 09:16:18;;;;;;;8.02;1.90;;;;;;;;;;6159729;23;20078;-89
2023/05/16 09:18:45;;;;;;;8.02;1.77;;;;;;;;;;6133837;23;20025;-89
2023/05/16 09:21:11;;;;;;;8.45;2.20;;;;;;;;;;6159169;23;20332;-90
2023/05/16 09:23:37;;;;;;;6.65;1.80;;;;;;;;;;6134536;23;20051;-89
2023/05/16 09:26:07;;;;;;;4.88;1.38;;;;;;;;;;6134652;23;20017;-90
2023/05/16 09:28:33;;;;;;;7.65;1.50;;;;;;;;;;6159090;23;20060;-90
2023/05/16 09:31:01;;;;;;;8.43;1.95;;;;;;;;;;6134715;23;20460;-90
2023/05/16 09:33:27;;;;;;;10.35;2.22;;;;;;;;;;6158840;23;20015;-89
2023/05/16 09:35:57;;;;;;;6.95;1.90;;;;;;;;;;6159348;23;20013;-89
2023/05/16 09:38:23;;;;;;;7.63;1.95;;;;;;;;;;6185257;23;20020;-89
2023/05/16 09:40:50;;;;;;;11.32;2.53;;;;;;;;;;6133729;23;20016;-89
2023/05/16 09:43:17;;;;;;;10.43;2.33;;;;;;;;;;6159153;23;20013;-90
2023/05/16 09:45:47;;;;;;;8.45;1.98;;;;;;;;;;6158856;23;20048;-89
2023/05/16 09:48:13;;;;;;;7.68;2.17;;;;;;;;;;6158082;23;20531;-89
2023/05/16 09:50:41;;;;;;;6.93;1.80;;;;;;;;;;6185360;23;20021;-88
2023/05/16 09:53:07;;;;;;;8.55;2.13;;;;;;;;;;6158504;23;20446;-89
2023/05/16 09:55:34;;;;;;;9.30;2.08;;;;;;;;;;6134176;23;20020;-89
2023/05/16 09:58:00;;;;;;;9.13;2.22;;;;;;;;;;6185145;23;20092;-89
2023/05/16 10:00:30;;;;;;;5.90;1.70;;;;;;;;;;6158161;23;20024;-90
2023/05/16 10:03:01;;;;;;;9.10;2.13;;;;;;;;;;6133062;23;20044;-89
2023/05/16 10:05:27;;;;;;;7.95;2.50;;;;;;;;;;6184536;23;20083;-89
2023/05/16 10:07:57;;;;;;;9.23;2.25;;;;;;;;;;6158469;23;20017;-89
2023/05/16 10:10:24;;;;;;;7.18;2.00;;;;;;;;;;6184513;23;20053;-89
2023/05/16 10:12:50;;;;;;;9.18;2.17;;;;;;;;;;6133452;23;20028;-88
2023/05/16 10:15:17;;;;;;;9.00;1.50;;;;;;;;;;6158586;23;20480;-89
2023/05/16 10:17:45;;;;;;;9.15;1.80;;;;;;;;;;6133131;23;20409;-90
2023/05/16 10:20:12;;;;;;;10.80;1.95;;;;;;;;;;6158364;23;20097;-90
2023/05/16 10:22:42;;;;;;;7.45;1.83;;;;;;;;;;6184714;23;20024;-89
2023/05/16 10:25:11;;;;;;;11.98;2.00;;;;;;;;;;6133517;23;20013;-89
2023/05/16 10:27:38;;;;;;;8.55;2.08;;;;;;;;;;6184726;23;20013;-89
2023/05/16 10:30:05;;;;;;;7.30;1.75;;;;;;;;;;6133216;23;20084;-89
2023/05/16 10:32:32;;;;;;;12.95;1.90;;;;;;;;;;6158087;23;20009;-89
2023/05/16 10:35:02;;;;;;;6.75;1.52;;;;;;;;;;6158041;23;20404;-89
2023/05/16 10:37:32;;;;;;;7.13;1.63;;;;;;;;;;6134175;23;20100;-89
2023/05/16 10:40:01;;;;;;;8.93;2.00;;;;;;;;;;6187103;23;20013;-89
2023/05/16 10:42:27;;;;;;;10.30;2.05;;;;;;;;;;6158668;23;20055;-89
2023/05/16 10:44:57;;;;;;;7.72;1.95;;;;;;;;;;6133197;23;20017;-89
2023/05/16 10:47:23;;;;;;;9.60;2.28;;;;;;;;;;6158117;23;20013;-89
2023/05/16 10:49:49;;;;;;;9.90;2.40;;;;;;;;;;6158673;23;20025;-89
2023/05/16 10:52:16;;;;;;;11.23;2.10;;;;;;;;;;6158617;23;20017;-89
2023/05/16 10:54:52;;;;;;;10.63;2.00;;;;;;;;;;6158251;23;20010;-89
2023/05/16 10:57:22;;;;;;;10.10;1.90;;;;;;;;;;6158369;23;20092;-89
2023/05/16 10:59:49;;;;;;;7.95;1.65;;;;;;;;;;6158203;23;20056;-88
2023/05/16 11:02:22;;;;;;;8.82;2.13;;;;;;;;;;6185332;23;20305;-90
2023/05/16 11:04:50;;;;;;;11.13;2.00;;;;;;;;;;6157815;23;20451;-89
2023/05/16 11:07:17;;;;;;;9.50;1.95;;;;;;;;;;6158245;23;20036;-90
2023/05/16 11:09:44;;;;;;;7.72;2.13;;;;;;;;;;6133274;23;20017;-89
2023/05/16 11:12:10;;;;;;;6.90;1.60;;;;;;;;;;6184789;23;20048;-90
2023/05/16 11:14:46;;;;;;;8.10;1.77;;;;;;;;;;6158254;23;20017;-90
2023/05/16 11:17:13;;;;;;;7.88;1.60;;;;;;;;;;6133582;23;20440;-89
2023/05/16 11:19:49;;;;;;;7.13;1.52;;;;;;;;;;6157764;23;20021;-90
2023/05/16 11:22:18;;;;;;;8.93;2.13;;;;;;;;;;6158459;23;20009;-90
2023/05/16 11:24:56;;;;;;;6.88;1.73;;;;;;;;;;6158360;23;20084;-91
2023/05/16 11:27:22;;;;;;;6.80;1.90;;;;;;;;;;6158432;23;20013;-90
2023/05/16 11:29:49;;;;;;;10.15;1.80;;;;;;;;;;6183988;23;20313;-89
2023/05/16 11:32:19;;;;;;;9.88;2.17;;;;;;;;;;6133007;23;20013;-89
2023/05/16 11:34:47;;;;;;;7.90;2.17;;;;;;;;;;6133439;23;20328;-90
2023/05/16 11:37:14;;;;;;;7.47;1.83;;;;;;;;;;6157749;23;20093;-88
2023/05/16 11:39:40;;;;;;;8.38;2.13;;;;;;;;;;6157635;23;20013;-90
2023/05/16 11:42:06;;;;;;;9.52;1.92;;;;;;;;;;6184556;23;20336;-89
2023/05/16 11:44:32;;;;;;;7.28;2.35;;;;;;;;;;6157368;23;20040;-90
2023/05/16 11:47:00;;;;;;;7.65;1.90;;;;;;;;;;6133481;23;20021;-90
2023/05/16 11:49:27;;;;;;;7.82;2.42;;;;;;;;;;6133355;23;20099;-89
2023/05/16 11:51:55;;;;;;;9.32;2.72;;;;;;;;;;6158145;23;20009;-90
2023/05/16 11:54:21;;;;;;;8.88;2.25;;;;;;;;;;6135177;23;20025;-90
2023/05/16 11:56:47;;;;;;;9.73;2.60;;;;;;;;;;6159582;23;20487;-90
2023/05/16 11:59:14;;;;;;;10.93;2.53;;;;;;;;;;6159515;23;20040;-90
2023/05/16 12:01:41;;;;;;;6.72;2.63;;;;;;;;;;6135378;23;20064;-89
2023/05/16 12:04:08;;;;;;;10.55;3.58;;;;;;;;;;6187644;23;20067;-90
2023/05/16 12:06:34;;;;;;;8.85;3.17;;;;;;;;;;6164061;23;20013;-89
2023/05/16 12:09:09;;;;;;;9.68;2.58;;;;;;;;;;6161091;23;20009;-89
2023/05/16 12:11:37;;;;;;;8.52;2.33;;;;;;;;;;6185626;23;20019;-92
2023/05/16 12:14:03;;;;;;;9.52;2.90;;;;;;;;;;6134904;23;20219;-90
2023/05/16 12:16:30;;;;;;;9.43;2.88;;;;;;;;;;6134609;23;20020;-89
2023/05/16 12:18:56;;;;;;;8.52;2.72;;;;;;;;;;6186256;23;20017;-90
2023/05/16 12:21:22;;;;;;;9.30;2.67;;;;;;;;;;6134966;23;20017;-90
2023/05/16 12:23:48;;;;;;;7.90;3.15;;;;;;;;;;6134882;23;20143;-90
2023/05/16 12:26:15;;;;;;;20.42;3.25;;;;;;;;;;6134596;23;20420;-91
2023/05/16 12:28:43;;;;;;;12.25;3.30;;;;;;;;;;6135068;23;20024;-90
2023/05/16 12:31:30;;;;;;;9.05;3.13;;;;;;;;;;6159769;23;20017;-91
2023/05/16 12:33:57;;;;;;;9.90;2.85;;;;;;;;;;6134389;23;20023;-90
2023/05/16 12:36:23;;;;;;;12.90;3.38;;;;;;;;;;6135212;23;20048;-90
2023/05/16 12:38:50;;;;;;;8.07;2.72;;;;;;;;;;6160024;23;20540;-90
2023/05/16 12:41:21;;;;;;;10.77;3.08;;;;;;;;;;6158819;23;20044;-90
2023/05/16 12:43:48;;;;;;;8.30;2.90;;;;;;;;;;6135293;23;20059;-90
2023/05/16 12:46:15;;;;;;;9.15;2.70;;;;;;;;;;6135143;23;20013;-90
2023/05/16 12:48:42;;;;;;;11.07;2.97;;;;;;;;;;6134593;23;20009;-90
2023/05/16 12:51:15;;;;;;;9.25;2.67;;;;;;;;;;6185843;23;20120;-89
2023/05/16 12:53:48;;;;;;;9.00;3.10;;;;;;;;;;6185930;23;20017;-90
2023/05/16 12:56:15;;;;;;;10.77;2.83;;;;;;;;;;6134189;23;20040;-89
2023/05/16 12:58:41;;;;;;;9.10;2.88;;;;;;;;;;6185732;23;20036;-90
2023/05/16 13:01:08;;;;;;;10.32;2.50;;;;;;;;;;6159445;23;20456;-90
2023/05/16 13:03:35;;;;;;;10.70;3.13;;;;;;;;;;6134073;23;20024;-89
2023/05/16 13:06:02;;;;;;;13.77;3.55;;;;;;;;;;6134785;23;20020;-89
2023/05/16 13:08:29;;;;;;;13.82;3.15;;;;;;;;;;6159141;23;20462;-87
2023/05/16 13:10:55;;;;;;;10.10;3.45;;;;;;;;;;6133959;23;20017;-91
2023/05/16 13:13:21;;;;;;;11.00;3.38;;;;;;;;;;6159302;23;20423;-90
2023/05/16 13:15:47;;;;;;;10.23;3.80;;;;;;;;;;6185063;23;20048;-90
2023/05/16 13:18:14;;;;;;;7.40;3.15;;;;;;;;;;6134759;23;20126;-90
2023/05/16 13:20:40;;;;;;;8.18;3.28;;;;;;;;;;6159094;23;20020;-90
2023/05/16 13:23:06;;;;;;;6.93;2.88;;;;;;;;;;6134480;23;20024;-89
2023/05/16 13:25:33;;;;;;;8.88;3.50;;;;;;;;;;6158875;23;20017;-89
2023/05/16 13:27:59;;;;;;;8.73;2.92;;;;;;;;;;6159313;23;20024;-89
2023/05/16 13:30:25;;;;;;;8.50;3.38;;;;;;;;;;6134317;23;20096;-89
2023/05/16 13:32:51;;;;;;;12.98;3.83;;;;;;;;;;6137348;23;20079;-89
2023/05/16 13:35:18;;;;;;;9.77;3.53;;;;;;;;;;6159612;23;20009;-89
2023/05/16 13:37:44;;;;;;;11.02;3.90;;;;;;;;;;6133551;23;20013;-88
2023/05/16 13:40:10;;;;;;;8.38;3.30;;;;;;;;;;6133891;23;20013;-89
2023/05/16 13:42:37;;;;;;;9.18;3.90;;;;;;;;;;6134111;23;20451;-89
2023/05/16 13:45:03;;;;;;;7.95;3.85;;;;;;;;;;6158550;23;20100;-89
2023/05/16 13:47:32;;;;;;;9.05;3.35;;;;;;;;;;6133993;23;20024;-88
2023/05/16 13:50:03;;;;;;;8.13;3.30;;;;;;;;;;6158500;23;20013;-90
2023/05/16 13:52:29;;;;;;;8.13;2.90;;;;;;;;;;6133733;23;20009;-89
2023/05/16 13:54:55;;;;;;;9.27;2.97;;;;;;;;;;6133613;23;20382;-90
2023/05/16 13:57:26;;;;;;;9.38;3.08;;;;;;;;;;6158703;23;20012;-89
2023/05/16 13:59:52;;;;;;;6.45;3.25;;;;;;;;;;6158831;23;20024;-89
2023/05/16 14:02:18;;;;;;;7.32;2.70;;;;;;;;;;6158839;23;20071;-89
2023/05/16 14:04:44;;;;;;;6.88;2.88;;;;;;;;;;6159219;23;20013;-88
2023/05/16 14:07:10;;;;;;;8.82;3.00;;;;;;;;;;6134066;23;20016;-89
2023/05/16 14:09:38;;;;;;;9.43;3.33;;;;;;;;;;6158076;23;20079;-89
2023/05/16 14:12:07;;;;;;;6.63;3.13;;;;;;;;;;6158862;23;20017;-89
2023/05/16 14:14:34;;;;;;;8.13;3.38;;;;;;;;;;6133672;23;20036;-89
2023/05/16 14:17:00;;;;;;;10.00;3.90;;;;;;;;;;6129117;23;20018;-89
2023/05/16 14:19:26;;;;;;;7.07;3.13;;;;;;;;;;6129292;23;20025;-89
2023/05/16 14:21:52;;;;;;;6.28;3.40;;;;;;;;;;6129509;23;20013;-89
2023/05/16 14:24:18;;;;;;;7.00;3.38;;;;;;;;;;6153255;23;20023;-89
2023/05/16 14:26:44;;;;;;;6.68;2.92;;;;;;;;;;6155692;23;20017;-89
2023/05/16 14:29:11;;;;;;;6.78;3.15;;;;;;;;;;6129185;23;20024;-89
2023/05/16 14:31:37;;;;;;;7.60;3.35;;;;;;;;;;6153134;23;20020;-90
2023/05/16 14:34:03;;;;;;;6.97;3.13;;;;;;;;;;6129097;23;20014;-90